createdAt,value
2023-02-06T00:02:29.769Z,15.3
2023-02-06T00:08:13.595Z,10.8
2023-02-06T00:13:57.471Z,10.8
2023-02-06T00:19:41.090Z,11.6
2023-02-06T00:25:24.945Z,10.6
2023-02-06T00:31:09.347Z,12.5
2023-02-06T00:36:53.366Z,11.9
2023-02-06T00:42:37.261Z,12.6
2023-02-06T00:48:21.259Z,13.1
2023-02-06T00:54:04.913Z,11.1
2023-02-06T00:59:48.583Z,13.9
2023-02-06T01:05:32.404Z,12.8
2023-02-06T01:11:17.938Z,14.5
2023-02-06T01:17:01.624Z,14.5
2023-02-06T01:22:45.325Z,12.1
2023-02-06T01:28:29.067Z,16.8
2023-02-06T01:34:12.738Z,13.8
2023-02-06T01:39:56.651Z,11
2023-02-06T01:45:53.989Z,10.6
2023-02-06T01:51:38.154Z,14.8
2023-02-06T01:57:22.624Z,14.4
2023-02-06T02:03:07.392Z,15.6
2023-02-06T02:08:53.366Z,12.7
2023-02-06T02:14:37.092Z,13
2023-02-06T02:20:34.000Z,13.4
2023-02-06T02:26:31.830Z,18
2023-02-06T02:32:23.619Z,15.6
2023-02-06T02:38:15.177Z,13.8
2023-02-06T02:44:03.160Z,10.8
2023-02-06T02:49:48.323Z,13.6
2023-02-06T02:55:31.988Z,14.8
2023-02-06T03:01:19.882Z,12.9
2023-02-06T03:07:11.195Z,15.5
2023-02-06T03:12:58.470Z,13.9
2023-02-06T03:18:45.221Z,16.4
2023-02-06T03:24:32.194Z,15.4
2023-02-06T03:30:18.330Z,19.7
2023-02-06T03:36:02.740Z,12.8
2023-02-06T03:41:47.894Z,12.8
2023-02-06T03:47:32.499Z,14.7
2023-02-06T03:53:18.495Z,18.6
2023-02-06T03:59:02.417Z,14.9
2023-02-06T04:04:46.968Z,22
2023-02-06T04:10:31.457Z,10.1
2023-02-06T04:16:15.254Z,11.5
2023-02-06T04:21:59.197Z,13.6
2023-02-06T04:27:43.183Z,13.6
2023-02-06T04:33:26.779Z,13.7
2023-02-06T04:39:11.583Z,16.8
2023-02-06T04:44:55.262Z,12.7
2023-02-06T04:50:38.841Z,15
2023-02-06T04:56:22.537Z,14.7
2023-02-06T05:02:06.236Z,13.9
2023-02-06T05:07:50.135Z,14.1
2023-02-06T05:13:33.818Z,14.1
2023-02-06T05:19:18.510Z,13.4
2023-02-06T05:25:02.391Z,13.2
2023-02-06T05:30:47.322Z,13.7
2023-02-06T05:36:31.243Z,12.5
2023-02-06T05:42:15.014Z,14.7
2023-02-06T05:47:58.711Z,13.5
2023-02-06T05:53:44.379Z,12.7
2023-02-06T05:59:28.108Z,14.7
2023-02-06T06:05:12.348Z,11.7
2023-02-06T06:10:56.267Z,13.4
2023-02-06T06:16:40.315Z,13
2023-02-06T06:22:24.326Z,10.4
2023-02-06T06:28:08.214Z,13.5
2023-02-06T06:33:52.007Z,13
2023-02-06T06:39:35.762Z,13.9
2023-02-06T06:45:19.724Z,14.2
2023-02-06T06:51:03.516Z,11.9
2023-02-06T06:56:47.321Z,12.1
2023-02-06T07:02:31.228Z,12.7
2023-02-06T07:08:14.909Z,11.6
2023-02-06T07:13:58.783Z,12
2023-02-06T07:19:42.505Z,10.5
2023-02-06T07:25:26.110Z,11.1
2023-02-06T07:31:10.344Z,9.8
2023-02-06T07:36:54.215Z,11.2
2023-02-06T07:42:37.827Z,34
2023-02-06T07:48:21.731Z,22.2
2023-02-06T07:54:05.679Z,14.4
2023-02-06T07:59:49.674Z,14.1
2023-02-06T08:05:34.035Z,13
2023-02-06T08:11:19.388Z,13.7
2023-02-06T08:17:03.099Z,11.1
2023-02-06T08:22:46.815Z,12.2
2023-02-06T08:28:31.320Z,12.9
2023-02-06T08:34:16.462Z,13.6
2023-02-06T08:40:00.275Z,11.8
2023-02-06T08:45:44.194Z,12.3
2023-02-06T08:51:28.202Z,11
2023-02-06T08:57:11.906Z,11.1
2023-02-06T09:02:56.973Z,10.9
2023-02-06T09:08:41.413Z,10.1
2023-02-06T09:14:25.218Z,10.9
2023-02-06T09:20:09.431Z,10.1
2023-02-06T09:25:53.110Z,10.3
2023-02-06T09:31:37.760Z,10.8
2023-02-06T09:37:21.530Z,11.8
2023-02-06T09:43:06.501Z,11.4
2023-02-06T09:48:51.508Z,8.6
2023-02-06T09:54:40.414Z,11
2023-02-06T10:00:31.751Z,9.9
2023-02-06T10:06:21.491Z,12.9
2023-02-06T10:12:07.443Z,9.5
2023-02-06T10:17:52.460Z,10.6
2023-02-06T10:23:40.462Z,10.8
2023-02-06T10:29:27.877Z,11.5
2023-02-06T10:35:15.954Z,11.7
2023-02-06T10:41:05.004Z,12.5
2023-02-06T10:46:50.560Z,12.8
2023-02-06T10:52:36.036Z,13.4
2023-02-06T10:58:22.850Z,13.2
2023-02-06T11:04:07.755Z,13.9
2023-02-06T11:09:52.742Z,13
2023-02-06T11:15:40.786Z,11.9
2023-02-06T11:21:38.738Z,11.5
2023-02-06T11:27:22.951Z,8.8
2023-02-06T11:33:08.681Z,9.7
2023-02-06T11:39:00.879Z,9.6
2023-02-06T11:44:45.929Z,8.4
2023-02-06T11:50:31.251Z,10.9
2023-02-06T11:56:22.015Z,8.3
2023-02-06T12:02:11.074Z,7.3
2023-02-06T12:07:57.294Z,8.7
2023-02-06T12:13:45.172Z,8.3
2023-02-06T12:19:31.810Z,9.5
2023-02-06T12:25:24.351Z,11
2023-02-06T12:31:12.386Z,10.9
2023-02-06T12:36:58.807Z,15.3
2023-02-06T12:42:45.008Z,11.8
2023-02-06T12:48:31.808Z,8.7
2023-02-06T12:54:20.007Z,21.7
2023-02-06T13:00:18.337Z,11.6
2023-02-06T13:06:11.756Z,14.8
2023-02-06T13:11:55.686Z,14.9
2023-02-06T13:17:40.643Z,15
2023-02-06T13:23:27.679Z,9.2
2023-02-06T13:29:16.491Z,12.2
2023-02-06T13:35:04.780Z,10
2023-02-06T13:40:48.619Z,10.2
2023-02-06T13:46:36.567Z,9
2023-02-06T13:52:25.519Z,9.9
2023-02-06T13:58:23.112Z,14
2023-02-06T14:04:09.883Z,12.3
2023-02-06T14:10:04.981Z,10.4
2023-02-06T14:15:52.796Z,7.2
2023-02-06T14:21:42.294Z,8.3
2023-02-06T14:27:34.022Z,9.1
2023-02-06T14:33:27.197Z,11.7
2023-02-06T14:39:22.260Z,12.8
2023-02-06T14:45:09.018Z,13.8
2023-02-06T14:50:58.037Z,9.2
2023-02-06T14:56:41.967Z,8.4
2023-02-06T15:02:29.132Z,9.2
2023-02-06T15:08:18.668Z,7.4
2023-02-06T15:14:03.499Z,8
2023-02-06T15:19:48.171Z,6.4
2023-02-06T15:25:37.274Z,6.4
2023-02-06T15:31:24.062Z,6.5
2023-02-06T15:37:13.854Z,8.9
2023-02-06T15:42:57.875Z,10.2
2023-02-06T15:48:46.399Z,11.5
2023-02-06T15:54:30.964Z,12.8
2023-02-06T16:00:22.529Z,11.5
2023-02-06T16:06:11.266Z,9.6
2023-02-06T16:11:56.426Z,11.2
2023-02-06T16:17:40.458Z,10.5
2023-02-06T16:23:31.903Z,10.2
2023-02-06T16:29:25.769Z,11.5
2023-02-06T16:35:14.668Z,11.7
2023-02-06T16:40:59.159Z,11.6
2023-02-06T16:46:43.215Z,11.7
2023-02-06T16:52:28.506Z,12.2
2023-02-06T16:58:17.205Z,10.9
2023-02-06T17:04:01.122Z,9.4
2023-02-06T17:09:45.609Z,9.8
2023-02-06T17:15:29.778Z,8.8
2023-02-06T17:21:15.749Z,7.9
2023-02-06T17:26:59.517Z,9.6
2023-02-06T17:32:43.346Z,23.9
2023-02-06T17:38:27.167Z,29.3
2023-02-06T17:44:11.308Z,27.5
2023-02-06T17:49:55.354Z,25.9
2023-02-06T17:55:39.523Z,23.9
2023-02-06T18:01:26.399Z,22.1
2023-02-06T18:07:10.411Z,20.8
2023-02-06T18:12:54.013Z,21.1
2023-02-06T18:18:37.967Z,18.1
2023-02-06T18:24:21.786Z,19.2
2023-02-06T18:30:06.247Z,20
2023-02-06T18:35:50.494Z,18.4
2023-02-06T18:41:34.627Z,17.4
2023-02-06T18:47:19.232Z,19
2023-02-06T18:53:03.936Z,16.6
2023-02-06T18:58:47.716Z,18.4
2023-02-06T19:04:31.922Z,17.2
2023-02-06T19:10:16.440Z,16.8
2023-02-06T19:16:09.152Z,21.6
2023-02-06T19:21:53.314Z,17
2023-02-06T19:27:36.939Z,19
2023-02-06T19:33:20.919Z,21.4
2023-02-06T19:39:06.236Z,15.3
2023-02-06T19:44:53.845Z,20.7
2023-02-06T19:50:38.852Z,18.2
2023-02-06T19:56:25.479Z,17.1
2023-02-06T20:02:09.402Z,18.6
2023-02-06T20:07:53.103Z,17
2023-02-06T20:13:37.234Z,16.6
2023-02-06T20:19:22.696Z,15.2
2023-02-06T20:25:06.936Z,14.7
2023-02-06T20:30:51.399Z,14.5
2023-02-06T20:36:35.249Z,15.4
2023-02-06T20:42:19.183Z,13.4
2023-02-06T20:48:02.720Z,13.5
2023-02-06T20:53:46.378Z,14
2023-02-06T20:59:31.495Z,14.5
2023-02-06T21:05:15.665Z,12.3
2023-02-06T21:10:59.580Z,11.1
2023-02-06T21:16:43.780Z,14
2023-02-06T21:22:27.597Z,12.9
2023-02-06T21:28:11.909Z,15.2
2023-02-06T21:33:55.680Z,12.4
2023-02-06T21:39:39.494Z,13.4
2023-02-06T21:45:24.134Z,13.1
2023-02-06T21:51:13.355Z,10.5
2023-02-06T21:56:57.264Z,10.2
2023-02-06T22:02:41.332Z,15.3
2023-02-06T22:08:24.933Z,14.4
2023-02-06T22:14:09.424Z,12.5
2023-02-06T22:19:53.223Z,10.6
2023-02-06T22:25:37.941Z,13.8
2023-02-06T22:31:23.104Z,12.8
2023-02-06T22:37:06.864Z,12.5
2023-02-06T22:42:50.518Z,11.3
2023-02-06T22:48:34.445Z,12.3
2023-02-06T22:54:19.501Z,11.6
2023-02-06T23:00:03.415Z,11.7
2023-02-06T23:05:47.268Z,12.3
2023-02-06T23:11:31.314Z,10.1
2023-02-06T23:17:15.074Z,9.8
2023-02-06T23:22:58.439Z,15.8
2023-02-06T23:28:42.202Z,9.7
2023-02-06T23:34:25.914Z,10.5
2023-02-06T23:40:11.002Z,11.8
2023-02-06T23:45:54.754Z,12
2023-02-06T23:51:38.875Z,10.6
2023-02-06T23:57:22.584Z,11.3
